METAR Data
IDs: Format: Raw Decoded Include TAF

Data at: 1119 UTC 26 Sep 2018

KOAK 261102Z 36003KT 7SM FEW007 FEW011 12/11 A2997 RMK AO2 T01170111
KOAK 261053Z 36004KT 7SM FEW011 11/11 A2997 RMK AO2 SLP148 T01110111
KOAK 260953Z 00000KT 7SM FEW007 12/11 A2997 RMK AO2 SLP148 T01170111
KOAK 260853Z 00000KT 7SM FEW007 12/11 A2997 RMK AO2 SLP148 T01170111 50000
KOAK 260753Z 35003KT 7SM FEW007 13/12 A2997 RMK AO2 SLP146 T01280117 402110111
KOAK 260653Z 32006KT 8SM FEW007 13/12 A2998 RMK AO2 SLP150 T01330122
KOAK 260553Z 30006KT 8SM FEW007 13/12 A2997 RMK AO2 SLP148 T01330122 10178 20133 51013
KOAK 260453Z 33003KT 9SM FEW007 13/12 A2996 RMK AO2 SLP145 T01330122
KOAK 260353Z 30006KT 10SM FEW007 14/13 A2995 RMK AO2 SLP141 T01390128
KOAK 260253Z 32005KT 10SM FEW008 14/12 A2993 RMK AO2 SLP134 T01440122 53002
KOAK 260153Z 31009KT 10SM FEW008 16/13 A2992 RMK AO2 SLP131 T01560128
KOAK 260053Z 31008KT 10SM FEW008 17/13 A2992 RMK AO2 SLP132 T01720128
KOAK 252353Z 31013KT 10SM FEW008 18/12 A2992 RMK AO2 SLP132 T01780122 10211 20156 56006
KOAK 252253Z 30014KT 10SM FEW008 18/12 A2993 RMK AO2 SLP133 T01830122
KOAK 252153Z 30013KT 10SM FEW008 19/13 A2993 RMK AO2 SLP135 T01940128
KOAK 252053Z 29014KT 10SM FEW008 19/12 A2994 RMK AO2 SLP138 T01940122 56013
KOAK 251953Z 30008KT 10SM CLR 21/13 A2995 RMK AO2 SLP141 T02110133
KOAK 251853Z 26007KT 10SM FEW009 17/13 A2996 RMK AO2 SLP147 T01670133
KOAK 251753Z VRB04KT 6SM HZ FEW009 16/13 A2998 RMK AO2 SLP151 T01560128 10156 20128 53008
KOAK 251739Z VRB04KT 6SM BR SCT009 15/13 A2998 RMK AO2 T01500128
KOAK 251653Z 00000KT 5SM BR BKN007 14/12 A2997 RMK AO2 SLP148 T01390122
KOAK 251639Z 00000KT 2SM BR OVC007 14/12 A2996 RMK AO2 SFC VIS 2 1/2 T01390122
KOAK 251553Z 00000KT 1 1/2SM BR OVC006 13/13 A2996 RMK AO2 TWR VIS 2 SLP145 T01330128
KOAK 251453Z 03004KT 1 1/2SM BR OVC005 13/12 A2995 RMK AO2 TWR VIS 2 SLP143 T01280122 53012
KOAK 251445Z 02004KT 1 1/2SM BR OVC005 13/12 A2995 RMK AO2 TWR VIS 2 T01280122
KOAK 251353Z 02005KT 2SM BR OVC005 13/12 A2994 RMK AO2 SFC VIS 2 1/2 SLP137 T01280122
KOAK 251253Z 01004KT 6SM BR OVC004 13/12 A2992 RMK AO2 SLP131 T01280122
KOAK 251153Z 33006KT 6SM BR OVC004 13/12 A2992 RMK AO2 SLP131 T01280122 10133 20111 51003
KOAK 251150Z 32005KT 6SM BR OVC004 13/12 A2992 RMK AO2
KOAK 251053Z 35003KT 6SM BR OVC005 13/12 A2991 RMK AO2 SLP127 T01280122
KOAK 250953Z 34004KT 7SM BKN006 BKN011 12/12 A2991 RMK AO2 SLP126 T01220117
KOAK 250933Z 36003KT 7SM FEW006 FEW011 12/11 A2991 RMK AO2 T01170111
KOAK 250853Z 35004KT 7SM FEW011 13/12 A2991 RMK AO2 SLP127 T01280122 51004
KOAK 250753Z 34004KT 7SM CLR 12/12 A2991 RMK AO2 SLP127 T01220117 402440089
KOAK 250653Z 35004KT 9SM CLR 13/12 A2991 RMK AO2 SLP127 T01280117
KOAK 250553Z 35003KT 9SM CLR 13/12 A2990 RMK AO2 SLP124 T01280117 10183 20117 51014
KOAK 250453Z 02003KT 9SM CLR 13/12 A2989 RMK AO2 SLP120 T01280117
KOAK 250353Z 36005KT 10SM FEW008 14/12 A2987 RMK AO2 SLP116 T01390117
KOAK 250253Z 35006KT 10SM FEW008 14/12 A2986 RMK AO2 SLP111 T01440117 53011
KOAK 250153Z 34006KT 10SM FEW008 16/12 A2984 RMK AO2 SLP105 T01610117
KOAK 250053Z 31012KT 10SM FEW010 FEW180 18/12 A2984 RMK AO2 SLP103 T01780122
KOAK 242353Z 30013KT 10SM FEW010 FEW180 18/13 A2983 RMK AO2 SLP100 T01830128 10244 20167 56008